sensor_id;sensor_type;location;lat;lon;timestamp;pressure;altitude;pressure_sealevel;temperature;humidity
49827;BME280;35715;51.570;6.036;2023-09-18T00:02:05;100493.84;;;21.23;100.00
49827;BME280;35715;51.570;6.036;2023-09-18T00:04:31;100492.06;;;21.22;100.00
49827;BME280;35715;51.570;6.036;2023-09-18T00:06:57;100488.44;;;21.14;100.00
49827;BME280;35715;51.570;6.036;2023-09-18T00:09:22;100478.66;;;21.07;100.00
49827;BME280;35715;51.570;6.036;2023-09-18T00:11:47;100478.53;;;20.99;100.00
49827;BME280;35715;51.570;6.036;2023-09-18T00:14:13;100476.81;;;21.01;100.00
49827;BME280;35715;51.570;6.036;2023-09-18T00:16:38;100476.78;;;21.00;100.00
49827;BME280;35715;51.570;6.036;2023-09-18T00:19:04;100472.53;;;21.05;100.00
49827;BME280;35715;51.570;6.036;2023-09-18T00:21:29;100471.56;;;21.01;100.00
49827;BME280;35715;51.570;6.036;2023-09-18T00:23:55;100454.88;;;20.98;100.00
49827;BME280;35715;51.570;6.036;2023-09-18T00:26:21;100461.78;;;20.91;100.00
49827;BME280;35715;51.570;6.036;2023-09-18T00:28:46;100452.13;;;20.90;100.00
49827;BME280;35715;51.570;6.036;2023-09-18T00:31:12;100453.06;;;20.94;100.00
49827;BME280;35715;51.570;6.036;2023-09-18T00:33:38;100441.72;;;20.95;100.00
49827;BME280;35715;51.570;6.036;2023-09-18T00:36:04;100434.66;;;20.92;100.00
49827;BME280;35715;51.570;6.036;2023-09-18T00:38:32;100435.47;;;20.86;100.00
49827;BME280;35715;51.570;6.036;2023-09-18T00:40:57;100432.75;;;20.82;100.00
49827;BME280;35715;51.570;6.036;2023-09-18T00:43:22;100430.13;;;20.82;100.00
49827;BME280;35715;51.570;6.036;2023-09-18T00:45:48;100425.75;;;20.82;100.00
49827;BME280;35715;51.570;6.036;2023-09-18T00:48:16;100423.09;;;20.81;100.00
49827;BME280;35715;51.570;6.036;2023-09-18T00:50:43;100422.16;;;20.79;100.00
49827;BME280;35715;51.570;6.036;2023-09-18T00:53:09;100415.28;;;20.82;100.00
49827;BME280;35715;51.570;6.036;2023-09-18T00:55:36;100412.69;;;20.85;100.00
49827;BME280;35715;51.570;6.036;2023-09-18T00:58:01;100405.75;;;20.87;100.00
49827;BME280;35715;51.570;6.036;2023-09-18T01:00:26;100396.09;;;20.85;100.00
49827;BME280;35715;51.570;6.036;2023-09-18T01:02:52;100391.75;;;20.87;100.00
49827;BME280;35715;51.570;6.036;2023-09-18T01:05:17;100382.88;;;20.80;100.00
49827;BME280;35715;51.570;6.036;2023-09-18T01:07:44;100382.06;;;20.83;100.00
49827;BME280;35715;51.570;6.036;2023-09-18T01:10:10;100385.66;;;20.88;100.00
49827;BME280;35715;51.570;6.036;2023-09-18T01:12:39;100381.38;;;20.93;100.00
49827;BME280;35715;51.570;6.036;2023-09-18T01:17:37;100369.28;;;21.03;100.00
49827;BME280;35715;51.570;6.036;2023-09-18T01:20:03;100351.91;;;21.08;100.00
49827;BME280;35715;51.570;6.036;2023-09-18T01:22:30;100351.09;;;21.12;100.00
49827;BME280;35715;51.570;6.036;2023-09-18T01:24:56;100344.94;;;21.10;100.00
49827;BME280;35715;51.570;6.036;2023-09-18T01:27:22;100347.66;;;21.16;100.00
49827;BME280;35715;51.570;6.036;2023-09-18T01:29:47;100348.59;;;21.20;100.00
49827;BME280;35715;51.570;6.036;2023-09-18T01:32:14;100342.47;;;21.21;100.00
49827;BME280;35715;51.570;6.036;2023-09-18T01:34:46;100350.44;;;21.25;100.00
49827;BME280;35715;51.570;6.036;2023-09-18T01:37:11;100348.75;;;21.29;100.00
49827;BME280;35715;51.570;6.036;2023-09-18T01:39:39;100341.78;;;21.31;100.00
49827;BME280;35715;51.570;6.036;2023-09-18T01:42:05;100348.00;;;21.36;100.00
49827;BME280;35715;51.570;6.036;2023-09-18T01:44:31;100341.88;;;21.37;100.00
49827;BME280;35715;51.570;6.036;2023-09-18T01:47:01;100341.03;;;21.40;100.00
49827;BME280;35715;51.570;6.036;2023-09-18T01:49:32;100341.03;;;21.38;100.00
49827;BME280;35715;51.570;6.036;2023-09-18T01:52:00;100331.38;;;21.37;100.00
49827;BME280;35715;51.570;6.036;2023-09-18T01:54:26;100323.53;;;21.39;100.00
49827;BME280;35715;51.570;6.036;2023-09-18T01:56:51;100313.91;;;21.38;100.00
49827;BME280;35715;51.570;6.036;2023-09-18T01:59:17;100321.81;;;21.39;100.00
49827;BME280;35715;51.570;6.036;2023-09-18T02:01:43;100313.03;;;21.39;100.00
49827;BME280;35715;51.570;6.036;2023-09-18T02:04:09;100310.41;;;21.39;100.00
49827;BME280;35715;51.570;6.036;2023-09-18T02:06:34;100317.34;;;21.35;100.00
49827;BME280;35715;51.570;6.036;2023-09-18T02:09:00;100321.75;;;21.36;100.00
49827;BME280;35715;51.570;6.036;2023-09-18T02:11:25;100313.03;;;21.39;100.00
49827;BME280;35715;51.570;6.036;2023-09-18T02:13:51;100324.34;;;21.35;100.00
49827;BME280;35715;51.570;6.036;2023-09-18T02:16:16;100310.41;;;21.39;100.00
49827;BME280;35715;51.570;6.036;2023-09-18T02:18:41;100297.19;;;21.33;100.00
49827;BME280;35715;51.570;6.036;2023-09-18T02:21:09;100299.84;;;21.34;100.00
49827;BME280;35715;51.570;6.036;2023-09-18T02:23:34;100291.16;;;21.38;100.00
49827;BME280;35715;51.570;6.036;2023-09-18T02:26:00;100289.44;;;21.42;99.62
49827;BME280;35715;51.570;6.036;2023-09-18T02:28:25;100287.69;;;21.39;99.67
49827;BME280;35715;51.570;6.036;2023-09-18T02:30:50;100279.81;;;21.39;99.59
49827;BME280;35715;51.570;6.036;2023-09-18T02:33:16;100266.72;;;21.42;99.41
49827;BME280;35715;51.570;6.036;2023-09-18T02:35:41;100263.19;;;21.42;99.40
49827;BME280;35715;51.570;6.036;2023-09-18T02:38:11;100257.00;;;21.37;99.91
49827;BME280;35715;51.570;6.036;2023-09-18T02:40:36;100246.50;;;21.35;99.86
49827;BME280;35715;51.570;6.036;2023-09-18T02:43:04;100240.41;;;21.38;99.41
49827;BME280;35715;51.570;6.036;2023-09-18T02:45:29;100235.16;;;21.38;99.47
49827;BME280;35715;51.570;6.036;2023-09-18T02:47:57;100220.28;;;21.38;99.43
49827;BME280;35715;51.570;6.036;2023-09-18T02:50:23;100218.47;;;21.34;100.00
49827;BME280;35715;51.570;6.036;2023-09-18T02:52:48;100209.75;;;21.34;100.00
49827;BME280;35715;51.570;6.036;2023-09-18T02:55:16;100198.31;;;21.32;100.00
49827;BME280;35715;51.570;6.036;2023-09-18T02:57:42;100198.28;;;21.28;100.00
49827;BME280;35715;51.570;6.036;2023-09-18T03:00:07;100186.91;;;21.28;100.00
49827;BME280;35715;51.570;6.036;2023-09-18T03:02:33;100186.06;;;21.31;100.00
49827;BME280;35715;51.570;6.036;2023-09-18T03:04:58;100179.97;;;21.33;100.00
49827;BME280;35715;51.570;6.036;2023-09-18T03:07:24;100173.84;;;21.33;99.92
49827;BME280;35715;51.570;6.036;2023-09-18T03:09:49;100173.88;;;21.34;99.88
49827;BME280;35715;51.570;6.036;2023-09-18T03:12:14;100168.63;;;21.36;99.96
49827;BME280;35715;51.570;6.036;2023-09-18T03:14:42;100163.44;;;21.39;99.48
49827;BME280;35715;51.570;6.036;2023-09-18T03:17:07;100162.56;;;21.38;99.21
49827;BME280;35715;51.570;6.036;2023-09-18T03:19:33;100173.91;;;21.37;98.39
49827;BME280;35715;51.570;6.036;2023-09-18T03:21:59;100161.59;;;21.33;98.10
49827;BME280;35715;51.570;6.036;2023-09-18T03:24:24;100172.09;;;21.33;97.84
49827;BME280;35715;51.570;6.036;2023-09-18T03:26:49;100177.34;;;21.33;97.72
49827;BME280;35715;51.570;6.036;2023-09-18T03:29:14;100182.59;;;21.33;97.81
49827;BME280;35715;51.570;6.036;2023-09-18T03:31:40;100193.16;;;21.35;97.75
49827;BME280;35715;51.570;6.036;2023-09-18T03:34:05;100178.25;;;21.35;97.48
49827;BME280;35715;51.570;6.036;2023-09-18T03:36:30;100179.09;;;21.33;97.62
49827;BME280;35715;51.570;6.036;2023-09-18T03:38:57;100180.81;;;21.29;97.83
49827;BME280;35715;51.570;6.036;2023-09-18T03:41:23;100167.63;;;21.24;98.29
49827;BME280;35715;51.570;6.036;2023-09-18T03:43:48;100187.78;;;21.28;98.36
49827;BME280;35715;51.570;6.036;2023-09-18T03:46:14;100179.88;;;21.27;98.17
49827;BME280;35715;51.570;6.036;2023-09-18T03:48:39;100187.78;;;21.28;98.05
49827;BME280;35715;51.570;6.036;2023-09-18T03:51:04;100209.69;;;21.29;98.22
49827;BME280;35715;51.570;6.036;2023-09-18T03:53:31;100207.91;;;21.28;98.28
49827;BME280;35715;51.570;6.036;2023-09-18T03:55:56;100208.75;;;21.27;98.26
49827;BME280;35715;51.570;6.036;2023-09-18T03:58:22;100202.66;;;21.28;98.11
49827;BME280;35715;51.570;6.036;2023-09-18T04:00:47;100208.78;;;21.28;98.18
49827;BME280;35715;51.570;6.036;2023-09-18T04:03:12;100210.53;;;21.28;98.20
49827;BME280;35715;51.570;6.036;2023-09-18T04:05:38;100197.38;;;21.26;98.11
49827;BME280;35715;51.570;6.036;2023-09-18T04:08:03;100205.25;;;21.25;97.73
49827;BME280;35715;51.570;6.036;2023-09-18T04:10:28;100200.84;;;21.25;97.36
49827;BME280;35715;51.570;6.036;2023-09-18T04:12:53;100191.25;;;21.24;97.41
49827;BME280;35715;51.570;6.036;2023-09-18T04:15:19;100184.22;;;21.23;97.07
49827;BME280;35715;51.570;6.036;2023-09-18T04:17:44;100160.63;;;21.23;97.17
49827;BME280;35715;51.570;6.036;2023-09-18T04:20:10;100137.84;;;21.22;97.08
49827;BME280;35715;51.570;6.036;2023-09-18T04:22:35;100137.84;;;21.21;97.16
49827;BME280;35715;51.570;6.036;2023-09-18T04:25:00;100156.22;;;21.24;96.96
49827;BME280;35715;51.570;6.036;2023-09-18T04:27:26;100157.97;;;21.22;96.96
49827;BME280;35715;51.570;6.036;2023-09-18T04:29:51;100161.47;;;21.22;96.78
49827;BME280;35715;51.570;6.036;2023-09-18T04:32:16;100162.38;;;21.23;96.74
49827;BME280;35715;51.570;6.036;2023-09-18T04:34:41;100147.47;;;21.22;96.78
49827;BME280;35715;51.570;6.036;2023-09-18T04:37:07;100153.53;;;21.18;97.11
49827;BME280;35715;51.570;6.036;2023-09-18T04:39:32;100143.94;;;21.17;96.73
49827;BME280;35715;51.570;6.036;2023-09-18T04:41:59;100145.66;;;21.18;96.61
49827;BME280;35715;51.570;6.036;2023-09-18T04:44:24;100149.16;;;21.17;96.55
49827;BME280;35715;51.570;6.036;2023-09-18T04:46:49;100139.56;;;21.19;96.16
49827;BME280;35715;51.570;6.036;2023-09-18T04:49:15;100136.97;;;21.20;95.83
49827;BME280;35715;51.570;6.036;2023-09-18T04:51:40;100126.44;;;21.19;95.82
49827;BME280;35715;51.570;6.036;2023-09-18T04:54:06;100118.59;;;21.20;95.94
49827;BME280;35715;51.570;6.036;2023-09-18T04:56:32;100107.22;;;21.20;95.66
49827;BME280;35715;51.570;6.036;2023-09-18T04:58:57;100106.38;;;21.22;96.12
49827;BME280;35715;51.570;6.036;2023-09-18T05:01:23;100102.84;;;21.20;95.61
49827;BME280;35715;51.570;6.036;2023-09-18T05:03:49;100106.34;;;21.21;95.81
49827;BME280;35715;51.570;6.036;2023-09-18T05:06:15;100102.84;;;21.20;95.62
49827;BME280;35715;51.570;6.036;2023-09-18T05:08:41;100111.59;;;21.21;95.63
49827;BME280;35715;51.570;6.036;2023-09-18T05:11:06;100123.88;;;21.22;95.67
49827;BME280;35715;51.570;6.036;2023-09-18T05:13:31;100133.50;;;21.23;95.57
49827;BME280;35715;51.570;6.036;2023-09-18T05:15:57;100126.47;;;21.22;95.24
49827;BME280;35715;51.570;6.036;2023-09-18T05:18:23;100114.19;;;21.18;95.01
49827;BME280;35715;51.570;6.036;2023-09-18T05:20:51;100116.78;;;21.15;94.74
49827;BME280;35715;51.570;6.036;2023-09-18T05:23:17;100132.50;;;21.13;95.17
49827;BME280;35715;51.570;6.036;2023-09-18T05:25:43;100149.97;;;21.13;94.92
49827;BME280;35715;51.570;6.036;2023-09-18T05:28:09;100141.19;;;21.09;94.82
49827;BME280;35715;51.570;6.036;2023-09-18T05:30:35;100149.88;;;21.05;94.96
49827;BME280;35715;51.570;6.036;2023-09-18T05:33:04;100146.34;;;21.04;94.63
49827;BME280;35715;51.570;6.036;2023-09-18T05:35:40;100148.06;;;21.01;94.90
49827;BME280;35715;51.570;6.036;2023-09-18T05:38:05;100165.56;;;21.00;94.73
49827;BME280;35715;51.570;6.036;2023-09-18T05:40:31;100173.34;;;20.94;95.13
49827;BME280;35715;51.570;6.036;2023-09-18T05:42:56;100171.53;;;20.91;95.50
49827;BME280;35715;51.570;6.036;2023-09-18T05:45:22;100180.31;;;20.94;95.13
49827;BME280;35715;51.570;6.036;2023-09-18T05:47:48;100183.72;;;20.86;95.77
49827;BME280;35715;51.570;6.036;2023-09-18T05:50:14;100193.28;;;20.84;95.85
49827;BME280;35715;51.570;6.036;2023-09-18T05:52:43;100202.03;;;20.83;95.82
49827;BME280;35715;51.570;6.036;2023-09-18T05:55:08;100208.97;;;20.81;96.55
49827;BME280;35715;51.570;6.036;2023-09-18T05:57:34;100206.31;;;20.80;96.17
49827;BME280;35715;51.570;6.036;2023-09-18T05:59:59;100195.84;;;20.80;96.14
49827;BME280;35715;51.570;6.036;2023-09-18T06:02:24;100199.38;;;20.82;96.53
49827;BME280;35715;51.570;6.036;2023-09-18T06:04:54;100191.53;;;20.82;96.31
49827;BME280;35715;51.570;6.036;2023-09-18T06:07:20;100182.81;;;20.86;96.24
49827;BME280;35715;51.570;6.036;2023-09-18T06:09:45;100181.13;;;20.88;96.55
49827;BME280;35715;51.570;6.036;2023-09-18T06:12:11;100181.97;;;20.87;96.85
49827;BME280;35715;51.570;6.036;2023-09-18T06:14:36;100189.84;;;20.87;97.18
49827;BME280;35715;51.570;6.036;2023-09-18T06:17:03;100206.47;;;20.90;96.51
49827;BME280;35715;51.570;6.036;2023-09-18T06:19:28;100199.56;;;20.94;96.15
49827;BME280;35715;51.570;6.036;2023-09-18T06:21:53;100209.13;;;20.92;96.34
49827;BME280;35715;51.570;6.036;2023-09-18T06:24:19;100198.59;;;20.89;96.63
49827;BME280;35715;51.570;6.036;2023-09-18T06:26:44;100192.47;;;20.87;96.78
49827;BME280;35715;51.570;6.036;2023-09-18T06:29:09;100204.66;;;20.85;97.00
49827;BME280;35715;51.570;6.036;2023-09-18T06:31:35;100207.28;;;20.83;96.88
49827;BME280;35715;51.570;6.036;2023-09-18T06:34:00;100227.31;;;20.81;96.94
49827;BME280;35715;51.570;6.036;2023-09-18T06:36:25;100230.84;;;20.82;96.83
49827;BME280;35715;51.570;6.036;2023-09-18T06:38:50;100222.09;;;20.83;96.81
49827;BME280;35715;51.570;6.036;2023-09-18T06:41:16;100224.72;;;20.83;97.07
49827;BME280;35715;51.570;6.036;2023-09-18T06:43:41;100230.06;;;20.89;96.69
49827;BME280;35715;51.570;6.036;2023-09-18T06:46:06;100210.81;;;20.87;96.65
49827;BME280;35715;51.570;6.036;2023-09-18T06:48:32;100216.94;;;20.89;96.44
49827;BME280;35715;51.570;6.036;2023-09-18T06:50:58;100234.53;;;20.95;95.92
49827;BME280;35715;51.570;6.036;2023-09-18T06:53:26;100237.19;;;20.96;96.05
49827;BME280;35715;51.570;6.036;2023-09-18T06:55:52;100250.34;;;20.99;95.54
49827;BME280;35715;51.570;6.036;2023-09-18T06:58:18;100248.59;;;21.01;95.55
49827;BME280;35715;51.570;6.036;2023-09-18T07:00:43;100243.50;;;21.09;95.62
49827;BME280;35715;51.570;6.036;2023-09-18T07:03:08;100242.66;;;21.13;94.97
49827;BME280;35715;51.570;6.036;2023-09-18T07:05:34;100248.84;;;21.15;94.83
49827;BME280;35715;51.570;6.036;2023-09-18T07:08:00;100257.59;;;21.16;94.18
49827;BME280;35715;51.570;6.036;2023-09-18T07:10:29;100254.94;;;21.14;93.76
49827;BME280;35715;51.570;6.036;2023-09-18T07:12:54;100256.75;;;21.18;93.55
49827;BME280;35715;51.570;6.036;2023-09-18T07:15:19;100247.13;;;21.19;92.74
49827;BME280;35715;51.570;6.036;2023-09-18T07:17:44;100234.06;;;21.23;92.81
49827;BME280;35715;51.570;6.036;2023-09-18T07:20:10;100251.59;;;21.24;92.02
49827;BME280;35715;51.570;6.036;2023-09-18T07:22:39;100246.41;;;21.29;92.42
49827;BME280;35715;51.570;6.036;2023-09-18T07:25:04;100243.75;;;21.26;91.13
49827;BME280;35715;51.570;6.036;2023-09-18T07:27:29;100238.56;;;21.31;91.91
49827;BME280;35715;51.570;6.036;2023-09-18T07:29:55;100230.72;;;21.32;92.06
49827;BME280;35715;51.570;6.036;2023-09-18T07:32:21;100250.00;;;21.37;92.10
49827;BME280;35715;51.570;6.036;2023-09-18T07:34:46;100264.03;;;21.36;91.26
49827;BME280;35715;51.570;6.036;2023-09-18T07:37:12;100261.41;;;21.38;90.98
49827;BME280;35715;51.570;6.036;2023-09-18T07:39:37;100243.00;;;21.35;90.63
49827;BME280;35715;51.570;6.036;2023-09-18T07:42:06;100256.13;;;21.35;90.68
49827;BME280;35715;51.570;6.036;2023-09-18T07:44:31;100258.75;;;21.35;90.30
49827;BME280;35715;51.570;6.036;2023-09-18T07:46:56;100244.72;;;21.34;90.48
49827;BME280;35715;51.570;6.036;2023-09-18T07:49:22;100236.84;;;21.34;90.38
49827;BME280;35715;51.570;6.036;2023-09-18T07:51:47;100250.00;;;21.36;90.14
49827;BME280;35715;51.570;6.036;2023-09-18T07:54:13;100263.13;;;21.37;90.08
49827;BME280;35715;51.570;6.036;2023-09-18T07:56:39;100269.34;;;21.41;89.56
49827;BME280;35715;51.570;6.036;2023-09-18T07:59:04;100270.25;;;21.46;89.28
49827;BME280;35715;51.570;6.036;2023-09-18T08:01:30;100268.50;;;21.47;88.53
49827;BME280;35715;51.570;6.036;2023-09-18T08:03:58;100265.06;;;21.49;88.51
49827;BME280;35715;51.570;6.036;2023-09-18T08:06:25;100262.47;;;21.51;87.73
49827;BME280;35715;51.570;6.036;2023-09-18T08:08:51;100265.13;;;21.52;87.74
49827;BME280;35715;51.570;6.036;2023-09-18T08:11:16;100260.78;;;21.56;88.18
49827;BME280;35715;51.570;6.036;2023-09-18T08:13:47;100266.06;;;21.59;88.00
49827;BME280;35715;51.570;6.036;2023-09-18T08:16:12;100256.53;;;21.62;87.88
49827;BME280;35715;51.570;6.036;2023-09-18T08:18:38;100267.09;;;21.69;87.91
49827;BME280;35715;51.570;6.036;2023-09-18T08:21:07;100261.91;;;21.73;87.63
49827;BME280;35715;51.570;6.036;2023-09-18T08:23:34;100275.06;;;21.75;87.22
49827;BME280;35715;51.570;6.036;2023-09-18T08:25:59;100271.63;;;21.80;87.20
49827;BME280;35715;51.570;6.036;2023-09-18T08:28:24;100281.28;;;21.85;86.14
49827;BME280;35715;51.570;6.036;2023-09-18T08:30:50;100284.84;;;21.88;86.64
49827;BME280;35715;51.570;6.036;2023-09-18T08:33:15;100287.56;;;21.96;86.68
49827;BME280;35715;51.570;6.036;2023-09-18T08:35:40;100302.50;;;21.98;86.60
49827;BME280;35715;51.570;6.036;2023-09-18T08:38:05;100297.28;;;22.02;86.29
49827;BME280;35715;51.570;6.036;2023-09-18T08:40:33;100293.84;;;22.09;86.69
49827;BME280;35715;51.570;6.036;2023-09-18T08:43:00;100298.16;;;22.02;84.80
49827;BME280;35715;51.570;6.036;2023-09-18T08:45:27;100299.13;;;22.12;85.34
49827;BME280;35715;51.570;6.036;2023-09-18T08:47:56;100295.81;;;22.28;85.44
49827;BME280;35715;51.570;6.036;2023-09-18T08:50:22;100302.19;;;22.47;83.60
49827;BME280;35715;51.570;6.036;2023-09-18T08:52:48;100301.66;;;22.82;83.93
49827;BME280;35715;51.570;6.036;2023-09-18T08:55:13;100302.66;;;22.98;83.77
49827;BME280;35715;51.570;6.036;2023-09-18T08:57:39;100300.03;;;22.98;80.78
49827;BME280;35715;51.570;6.036;2023-09-18T09:00:07;100308.78;;;22.96;81.50
49827;BME280;35715;51.570;6.036;2023-09-18T09:02:33;100300.84;;;22.90;80.07
49827;BME280;35715;51.570;6.036;2023-09-18T09:04:58;100303.50;;;22.93;80.30
49827;BME280;35715;51.570;6.036;2023-09-18T09:07:25;100306.13;;;22.91;79.17
49827;BME280;35715;51.570;6.036;2023-09-18T09:09:50;100300.94;;;23.02;79.84
49827;BME280;35715;51.570;6.036;2023-09-18T09:12:15;100313.22;;;23.00;79.74
49827;BME280;35715;51.570;6.036;2023-09-18T09:14:43;100314.03;;;22.96;79.95
49827;BME280;35715;51.570;6.036;2023-09-18T09:17:26;100315.06;;;23.13;79.64
49827;BME280;35715;51.570;6.036;2023-09-18T09:19:51;100312.34;;;23.02;78.72
49827;BME280;35715;51.570;6.036;2023-09-18T09:22:20;100311.41;;;22.94;78.43
49827;BME280;35715;51.570;6.036;2023-09-18T09:24:45;100309.91;;;23.21;78.34
49827;BME280;35715;51.570;6.036;2023-09-18T09:27:10;100310.16;;;23.63;76.57
49827;BME280;35715;51.570;6.036;2023-09-18T09:29:36;100310.41;;;24.09;74.91
49827;BME280;35715;51.570;6.036;2023-09-18T09:34:40;100302.63;;;25.28;73.47
49827;BME280;35715;51.570;6.036;2023-09-18T09:37:05;100311.28;;;26.06;68.89
49827;BME280;35715;51.570;6.036;2023-09-18T09:39:31;100317.16;;;27.64;65.41
49827;BME280;35715;51.570;6.036;2023-09-18T09:41:59;100299.72;;;28.81;61.50
49827;BME280;35715;51.570;6.036;2023-09-18T09:44:24;100288.63;;;29.58;56.83
49827;BME280;35715;51.570;6.036;2023-09-18T09:46:50;100286.75;;;30.06;57.37
49827;BME280;35715;51.570;6.036;2023-09-18T09:49:16;100291.38;;;30.40;49.02
49827;BME280;35715;51.570;6.036;2023-09-18T09:51:45;100290.03;;;31.30;53.40
49827;BME280;35715;51.570;6.036;2023-09-18T09:54:11;100303.25;;;31.99;50.22
49827;BME280;35715;51.570;6.036;2023-09-18T09:56:46;100302.28;;;32.60;49.33
49827;BME280;35715;51.570;6.036;2023-09-18T09:59:13;100311.91;;;32.66;50.10
49827;BME280;35715;51.570;6.036;2023-09-18T10:01:39;100306.56;;;33.45;48.69
49827;BME280;35715;51.570;6.036;2023-09-18T10:04:08;100319.16;;;33.91;45.14
49827;BME280;35715;51.570;6.036;2023-09-18T10:06:34;100315.41;;;33.21;46.68
49827;BME280;35715;51.570;6.036;2023-09-18T10:09:01;100322.56;;;33.21;45.76
49827;BME280;35715;51.570;6.036;2023-09-18T10:11:27;100325.22;;;33.71;45.27
49827;BME280;35715;51.570;6.036;2023-09-18T10:13:57;100334.59;;;34.32;43.23
49827;BME280;35715;51.570;6.036;2023-09-18T10:16:24;100327.88;;;33.73;44.64
49827;BME280;35715;51.570;6.036;2023-09-18T10:22:21;100322.94;;;34.09;39.82
49827;BME280;35715;51.570;6.036;2023-09-18T10:24:27;100331.34;;;33.76;42.61
49827;BME280;35715;51.570;6.036;2023-09-18T10:27:01;100322.47;;;34.68;42.66
49827;BME280;35715;51.570;6.036;2023-09-18T10:29:32;100326.69;;;35.59;41.86
49827;BME280;35715;51.570;6.036;2023-09-18T10:31:58;100324.41;;;36.10;40.28
49827;BME280;35715;51.570;6.036;2023-09-18T10:34:23;100328.03;;;35.69;35.44
49827;BME280;35715;51.570;6.036;2023-09-18T10:36:50;100326.69;;;34.05;39.49
49827;BME280;35715;51.570;6.036;2023-09-18T10:39:15;100336.41;;;33.84;40.90
49827;BME280;35715;51.570;6.036;2023-09-18T10:41:46;100336.03;;;32.34;41.15
49827;BME280;35715;51.570;6.036;2023-09-18T10:44:12;100344.38;;;31.59;44.28
49827;BME280;35715;51.570;6.036;2023-09-18T10:46:37;100353.25;;;30.50;45.58
49827;BME280;35715;51.570;6.036;2023-09-18T10:49:05;100342.47;;;29.69;46.88
49827;BME280;35715;51.570;6.036;2023-09-18T10:51:31;100349.00;;;29.99;47.60
49827;BME280;35715;51.570;6.036;2023-09-18T10:53:58;100338.44;;;29.48;47.75
49827;BME280;35715;51.570;6.036;2023-09-18T10:56:24;100344.81;;;31.42;45.63
49827;BME280;35715;51.570;6.036;2023-09-18T10:58:59;100338.66;;;32.05;44.69
49827;BME280;35715;51.570;6.036;2023-09-18T11:01:28;100327.88;;;32.39;45.12
49827;BME280;35715;51.570;6.036;2023-09-18T11:03:57;100312.88;;;33.17;43.35
49827;BME280;35715;51.570;6.036;2023-09-18T11:06:24;100313.53;;;33.99;39.91
49827;BME280;35715;51.570;6.036;2023-09-18T11:08:51;100326.00;;;34.68;39.71
49827;BME280;35715;51.570;6.036;2023-09-18T11:11:18;100326.31;;;35.27;39.44
49827;BME280;35715;51.570;6.036;2023-09-18T11:13:51;100326.59;;;35.19;38.65
49827;BME280;35715;51.570;6.036;2023-09-18T11:21:25;100336.97;;;35.06;35.59
49827;BME280;35715;51.570;6.036;2023-09-18T11:26:43;100348.03;;;35.62;35.31
49827;BME280;35715;51.570;6.036;2023-09-18T11:29:21;100350.38;;;35.90;36.31
49827;BME280;35715;51.570;6.036;2023-09-18T11:34:22;100337.56;;;34.92;39.23
49827;BME280;35715;51.570;6.036;2023-09-18T11:36:48;100338.22;;;35.61;37.21
49827;BME280;35715;51.570;6.036;2023-09-18T11:39:14;100334.28;;;36.28;36.95
49827;BME280;35715;51.570;6.036;2023-09-18T11:42:06;100337.38;;;36.19;35.49
49827;BME280;35715;51.570;6.036;2023-09-18T11:44:31;100327.25;;;36.45;35.95
49827;BME280;35715;51.570;6.036;2023-09-18T11:46:57;100343.50;;;35.62;35.21
49827;BME280;35715;51.570;6.036;2023-09-18T11:49:25;100335.97;;;35.09;35.86
49827;BME280;35715;51.570;6.036;2023-09-18T11:52:00;100329.44;;;35.57;35.98
49827;BME280;35715;51.570;6.036;2023-09-18T11:54:27;100335.47;;;34.78;37.34
49827;BME280;35715;51.570;6.036;2023-09-18T11:56:52;100333.69;;;33.34;39.74
49827;BME280;35715;51.570;6.036;2023-09-18T11:59:17;100323.09;;;32.21;40.56
49827;BME280;35715;51.570;6.036;2023-09-18T12:01:52;100321.69;;;31.76;41.03
49827;BME280;35715;51.570;6.036;2023-09-18T12:04:17;100318.91;;;32.42;41.50
49827;BME280;35715;51.570;6.036;2023-09-18T12:06:52;100315.31;;;33.50;39.85
49827;BME280;35715;51.570;6.036;2023-09-18T12:09:17;100321.34;;;33.31;37.84
49827;BME280;35715;51.570;6.036;2023-09-18T12:11:44;100328.09;;;32.60;39.45
49827;BME280;35715;51.570;6.036;2023-09-18T12:14:10;100325.19;;;32.39;40.95
49827;BME280;35715;51.570;6.036;2023-09-18T12:16:38;100314.28;;;31.54;42.03
49827;BME280;35715;51.570;6.036;2023-09-18T12:19:06;100312.16;;;30.62;41.54
49827;BME280;35715;51.570;6.036;2023-09-18T12:21:32;100312.41;;;31.58;42.38
49827;BME280;35715;51.570;6.036;2023-09-18T12:23:57;100311.19;;;32.31;41.68
49827;BME280;35715;51.570;6.036;2023-09-18T12:26:23;100306.09;;;32.51;40.13
49827;BME280;35715;51.570;6.036;2023-09-18T12:28:51;100301.72;;;31.59;41.45
49827;BME280;35715;51.570;6.036;2023-09-18T12:31:16;100303.41;;;30.93;41.38
49827;BME280;35715;51.570;6.036;2023-09-18T12:33:43;100298.44;;;30.79;42.62
49827;BME280;35715;51.570;6.036;2023-09-18T12:36:09;100303.53;;;30.51;42.78
49827;BME280;35715;51.570;6.036;2023-09-18T12:38:34;100301.31;;;30.31;44.08
49827;BME280;35715;51.570;6.036;2023-09-18T12:41:02;100285.63;;;30.18;43.09
49827;BME280;35715;51.570;6.036;2023-09-18T12:43:41;100290.38;;;30.04;45.22
49827;BME280;35715;51.570;6.036;2023-09-18T12:46:06;100290.00;;;29.79;45.05
49827;BME280;35715;51.570;6.036;2023-09-18T12:48:39;100278.56;;;29.30;44.83
49827;BME280;35715;51.570;6.036;2023-09-18T12:51:11;100275.50;;;29.00;44.69
49827;BME280;35715;51.570;6.036;2023-09-18T12:53:36;100277.31;;;28.96;44.83
49827;BME280;35715;51.570;6.036;2023-09-18T12:56:12;100275.94;;;28.75;44.21
49827;BME280;35715;51.570;6.036;2023-09-18T12:58:38;100265.44;;;28.66;46.06
49827;BME280;35715;51.570;6.036;2023-09-18T13:01:04;100273.63;;;28.49;46.09
49827;BME280;35715;51.570;6.036;2023-09-18T13:03:33;100281.84;;;28.32;44.99